Vremea mâine în Cehu Silvaniei - Romania

Vrei sa afli care e starea vremii acum in Salaj - Romania? Dorim sa iti furnizam starea vremii pentru Salaj - Romania. Starea vremii Salaj - Romania pentru astazi.

Vremea mâine în Cehu Silvaniei

Temperatura minimă:
9.2 °C

Temperatura maximă:
23.3 °C

Mâine va fi: Senin
Precipitații: 0 %
Umiditate: 64%
Viteza maximă vânt mâine:
11.5 km/h

Evoluția vremii in Cehu Silvaniei pe ore mâine

Ora: 12:00
Temperatura: °C
Sansa de precipitatii: %
Ora Descriere Temp Se simte Precipitatii Umiditate Vant
00:00Senin11.6°11.1°0%75%SSW 6.8 KM/H
01:00Senin11.1°10.6°0%76%SSW 6.8 KM/H
02:00Senin10.8°10.3°0%77%S 6.1 KM/H
03:00Senin10.5°10.1°0%77%S 5.8 KM/H
04:00Senin10.1°9.8°0%78%SSE 5.4 KM/H
05:00Senin9.7°9.2°0%79%SSE 5.4 KM/H
06:00Senin9.2°8.7°0%80%SSE 5.8 KM/H
07:00Senin10°9.4°0%79%SE 6.5 KM/H
08:00Senin12.7°12.4°0%73%SE 6.8 KM/H
09:00Senin15.2°15.2°0%66%ESE 8.6 KM/H
10:00Senin17.2°17.2°0%60%ESE 10.1 KM/H
11:00Senin18.9°19°0%56%ESE 11.2 KM/H
12:00Senin20.4°20.4°0%51%ESE 11.5 KM/H
13:00Senin21.7°21.7°0%47%ESE 11.2 KM/H
14:00Senin22.6°24.4°0%44%ESE 10.1 KM/H
15:00Senin23.1°24.5°0%41%ESE 9.4 KM/H
16:00Senin23.3°24.5°0%41%ESE 9 KM/H
17:00Senin23.1°24.5°0%42%ESE 9.4 KM/H
18:00Senin22.2°24.5°0%50%SE 9 KM/H
19:00Senin20.3°20.3°0%60%SSE 8.3 KM/H
20:00Senin18.1°18.1°0%63%SSE 6.1 KM/H
21:00Senin15.6°15.6°0%66%S 7.2 KM/H
22:00Senin14.4°14.2°0%70%SSW 7.9 KM/H
23:00Patchy rain nearby13.6°13.3°68%75%SSW 7.6 KM/H




tutorials